createdAt,value
2023-03-10T00:04:57.340Z,98356.78
2023-03-10T00:09:58.869Z,98355.38
2023-03-10T00:15:00.300Z,98352.69
2023-03-10T00:20:02.566Z,98350.38
2023-03-10T00:25:04.398Z,98347.63
2023-03-10T00:30:06.464Z,98341.38
2023-03-10T00:35:08.193Z,98340.16
2023-03-10T00:40:11.487Z,98347.41
2023-03-10T00:45:13.246Z,98342.94
2023-03-10T00:50:15.325Z,98340.13
2023-03-10T00:55:17.006Z,98335.25
2023-03-10T01:00:18.936Z,98327.09
2023-03-10T01:05:20.438Z,98324.25
2023-03-10T01:10:21.917Z,98294.28
2023-03-10T01:15:23.542Z,98286.53
2023-03-10T01:20:25.044Z,98263.09
2023-03-10T01:25:28.247Z,98259.72
2023-03-10T01:30:29.683Z,98257.56
2023-03-10T01:35:31.292Z,98263.47
2023-03-10T01:40:33.058Z,98264.28
2023-03-10T01:45:34.484Z,98247.19
2023-03-10T01:50:37.719Z,98240.78
2023-03-10T01:55:43.906Z,98236.22
2023-03-10T02:00:45.556Z,98228.19
2023-03-10T02:06:11.529Z,98208.44
2023-03-10T02:11:14.712Z,98187.06
2023-03-10T02:16:17.285Z,98175.97
2023-03-10T02:21:44.410Z,98169.66
2023-03-10T02:27:01.415Z,98183.00
2023-03-10T02:32:03.395Z,98177.19
2023-03-10T02:37:05.011Z,98166.38
2023-03-10T02:42:06.627Z,98177.19
2023-03-10T02:47:08.114Z,98169.03
2023-03-10T02:52:24.150Z,98157.09
2023-03-10T02:57:25.668Z,98163.38
2023-03-10T03:02:27.197Z,98154.63
2023-03-10T03:07:28.811Z,98139.22
2023-03-10T03:12:30.333Z,98128.22
2023-03-10T03:17:32.057Z,98130.13
2023-03-10T03:22:33.460Z,98126.44
2023-03-10T03:27:35.239Z,98108.03
2023-03-10T03:32:37.322Z,98091.75
2023-03-10T03:37:39.174Z,98107.84
2023-03-10T03:42:46.314Z,98097.94
2023-03-10T03:47:48.014Z,98097.38
2023-03-10T03:52:50.286Z,98092.72
2023-03-10T03:57:52.482Z,98085.59
2023-03-10T04:02:54.002Z,98086.50
2023-03-10T04:07:55.658Z,98097.91
2023-03-10T04:12:57.522Z,98099.53
2023-03-10T04:18:00.413Z,98111.16
2023-03-10T04:23:02.230Z,98116.91
2023-03-10T04:28:03.801Z,98112.16
2023-03-10T04:33:05.237Z,98091.00
2023-03-10T04:38:06.879Z,98066.81
2023-03-10T04:43:08.336Z,98068.66
2023-03-10T04:48:09.812Z,98047.31
2023-03-10T04:53:11.294Z,98044.47
2023-03-10T04:58:13.419Z,98024.84
2023-03-10T05:03:15.726Z,98024.47
2023-03-10T05:08:17.522Z,98018.03
2023-03-10T05:13:19.133Z,98012.44
2023-03-10T05:18:20.686Z,98009.16
2023-03-10T05:23:24.494Z,97996.78
2023-03-10T05:28:26.004Z,97994.31
2023-03-10T05:33:29.564Z,97978.81
2023-03-10T05:38:32.948Z,97989.16
2023-03-10T05:43:35.370Z,97985.09
2023-03-10T05:48:36.912Z,97984.19
2023-03-10T05:53:39.525Z,97990.69
2023-03-10T05:58:41.518Z,97982.63
2023-03-10T06:03:46.442Z,97979.56
2023-03-10T06:08:47.980Z,97962.31
2023-03-10T06:13:49.697Z,97964.09
2023-03-10T06:18:57.828Z,97975.88
2023-03-10T06:24:00.467Z,97954.22
2023-03-10T06:29:02.029Z,97947.59
2023-03-10T06:34:04.637Z,97962.09
2023-03-10T06:39:07.229Z,97959.69
2023-03-10T06:44:08.775Z,97957.16
2023-03-10T06:49:10.230Z,97966.50
2023-03-10T06:54:11.719Z,97948.91
2023-03-10T06:59:13.575Z,97954.63
2023-03-10T07:04:15.278Z,97948.19
2023-03-10T07:09:16.885Z,97962.94
2023-03-10T07:14:18.474Z,97978.53
2023-03-10T07:19:19.965Z,98005.47
2023-03-10T07:24:21.949Z,98021.22
2023-03-10T07:29:23.540Z,98009.72
2023-03-10T07:34:25.117Z,97999.13
2023-03-10T07:39:26.655Z,98001.13
2023-03-10T07:44:28.195Z,98099.84
2023-03-10T07:49:32.218Z,98098.72
2023-03-10T07:54:33.694Z,98112.06
2023-03-10T07:59:35.644Z,98118.56
2023-03-10T08:04:37.200Z,98119.63
2023-03-10T08:09:39.427Z,98121.69
2023-03-10T08:14:41.525Z,98123.25
2023-03-10T08:19:43.890Z,98108.91
2023-03-10T08:24:45.608Z,98111.31
2023-03-10T08:29:47.230Z,98124.44
2023-03-10T08:34:48.740Z,98132.78
2023-03-10T08:39:52.956Z,98129.34
2023-03-10T08:44:56.057Z,98126.28
2023-03-10T08:49:57.807Z,98114.06
2023-03-10T08:54:59.996Z,98121.41
2023-03-10T09:00:02.215Z,98127.22
2023-03-10T09:05:04.118Z,98124.56
2023-03-10T09:10:05.950Z,98141.25
2023-03-10T09:15:08.419Z,98131.69
2023-03-10T09:20:10.524Z,98123.19
2023-03-10T09:25:12.016Z,98119.94
2023-03-10T09:30:15.347Z,98125.28
2023-03-10T09:35:17.075Z,98123.19
2023-03-10T09:40:20.675Z,98121.75
2023-03-10T09:45:47.952Z,98122.16
2023-03-10T09:50:52.469Z,98130.13
2023-03-10T09:55:54.021Z,98147.84
2023-03-10T10:00:55.495Z,98134.13
2023-03-10T10:05:59.254Z,98147.25
2023-03-10T10:11:02.915Z,98145.25
2023-03-10T10:16:47.870Z,98147.88
2023-03-10T10:22:14.020Z,98134.97
2023-03-10T10:27:18.326Z,98140.59
2023-03-10T10:32:21.038Z,98138.63
2023-03-10T10:37:36.542Z,98142.41
2023-03-10T10:42:51.537Z,98146.34
2023-03-10T10:47:57.759Z,98146.78
2023-03-10T10:53:26.653Z,98162.69
2023-03-10T10:58:29.829Z,98165.75
2023-03-10T11:03:35.511Z,98162.81
2023-03-10T11:08:39.409Z,98173.44
2023-03-10T11:13:40.904Z,98164.88
2023-03-10T11:18:56.570Z,98179.97
2023-03-10T11:24:25.906Z,98185.38
2023-03-10T11:29:49.827Z,98176.06
2023-03-10T11:34:55.864Z,98175.44
2023-03-10T11:40:16.388Z,98175.09
2023-03-10T11:45:32.124Z,98167.81
2023-03-10T11:50:59.184Z,98158.19
2023-03-10T11:56:02.835Z,98162.75
2023-03-10T12:01:05.882Z,98154.59
2023-03-10T12:06:19.726Z,98165.13
2023-03-10T12:11:25.432Z,98156.44
2023-03-10T12:16:31.344Z,98164.25
2023-03-10T12:21:33.702Z,98174.38
2023-03-10T12:26:39.434Z,98179.38
2023-03-10T12:31:41.346Z,98182.03
2023-03-10T12:36:46.607Z,98193.47
2023-03-10T12:41:53.318Z,98182.47
2023-03-10T12:47:21.755Z,98195.81
2023-03-10T12:52:44.884Z,98205.06
2023-03-10T12:57:52.765Z,98193.44
2023-03-10T13:03:16.992Z,98186.78
2023-03-10T13:08:24.695Z,98184.88
2023-03-10T13:13:34.173Z,98195.06
2023-03-10T13:18:35.874Z,98208.50
2023-03-10T13:23:37.610Z,98211.75
2023-03-10T13:28:39.139Z,98216.09
2023-03-10T13:33:52.713Z,98234.91
2023-03-10T13:38:56.466Z,98256.06
2023-03-10T13:43:58.146Z,98258.69
2023-03-10T13:49:04.056Z,98261.81
2023-03-10T13:54:22.174Z,98260.63
2023-03-10T13:59:27.321Z,98247.63
2023-03-10T14:04:41.073Z,98267.00
2023-03-10T14:09:42.645Z,98273.19
2023-03-10T14:14:44.669Z,98300.75
2023-03-10T14:19:48.735Z,98309.50
2023-03-10T14:24:51.016Z,98312.75
2023-03-10T14:29:55.456Z,98315.28
2023-03-10T14:34:56.923Z,98341.19
2023-03-10T14:39:58.345Z,98368.84
2023-03-10T14:45:06.266Z,98370.31
2023-03-10T14:50:14.304Z,98386.75
2023-03-10T14:55:19.501Z,98409.53
2023-03-10T15:00:22.081Z,98425.34
2023-03-10T15:05:34.619Z,98441.09
2023-03-10T15:10:47.380Z,98445.91
2023-03-10T15:15:50.119Z,98463.88
2023-03-10T15:20:52.062Z,98464.78
2023-03-10T15:25:54.910Z,98491.38
2023-03-10T15:30:56.486Z,98483.31
2023-03-10T15:35:58.066Z,98492.25
2023-03-10T15:41:01.064Z,98536.69
2023-03-10T15:46:07.140Z,98532.34
2023-03-10T15:51:10.738Z,98529.25
2023-03-10T15:56:13.117Z,98547.34
2023-03-10T16:01:18.703Z,98548.41
2023-03-10T16:06:24.873Z,98532.78
2023-03-10T16:11:26.561Z,98532.84
2023-03-10T16:16:28.606Z,98523.34
2023-03-10T16:21:30.257Z,98532.56
2023-03-10T16:26:31.749Z,98543.94
2023-03-10T16:31:33.532Z,98545.63
2023-03-10T16:36:36.897Z,98609.03
2023-03-10T16:41:41.874Z,98613.78
2023-03-10T16:46:43.467Z,98620.41
2023-03-10T16:51:47.593Z,98586.25
2023-03-10T16:56:51.511Z,98600.38
2023-03-10T17:01:53.482Z,98604.81
2023-03-10T17:06:55.654Z,98639.50
2023-03-10T17:11:57.256Z,98649.41
2023-03-10T17:16:58.822Z,98645.41
2023-03-10T17:22:00.342Z,98687.31
2023-03-10T17:27:02.403Z,98682.16
2023-03-10T17:32:04.287Z,98685.50
2023-03-10T17:37:09.166Z,98712.16
2023-03-10T17:42:10.622Z,98692.19
2023-03-10T17:47:12.271Z,98726.97
2023-03-10T17:52:13.816Z,98717.66
2023-03-10T17:57:16.016Z,98771.47
2023-03-10T18:02:18.147Z,98743.00
2023-03-10T18:07:19.690Z,98768.34
2023-03-10T18:12:21.185Z,98739.13
2023-03-10T18:17:22.648Z,98750.44
2023-03-10T18:22:24.104Z,98741.63
2023-03-10T18:27:25.574Z,98739.50
2023-03-10T18:32:29.469Z,98763.09
2023-03-10T18:37:35.152Z,98788.44
2023-03-10T18:42:36.664Z,98795.59
2023-03-10T18:47:38.093Z,98823.44
2023-03-10T18:52:42.911Z,98858.44
2023-03-10T18:57:44.905Z,98861.59
2023-03-10T19:02:46.856Z,98890.13
2023-03-10T19:07:48.787Z,98890.41
2023-03-10T19:12:50.218Z,98884.88
2023-03-10T19:17:51.635Z,98918.47
2023-03-10T19:22:53.517Z,98877.03
2023-03-10T19:27:55.005Z,98890.44
2023-03-10T19:32:57.181Z,98935.19
2023-03-10T19:37:58.894Z,98971.00
2023-03-10T19:43:00.366Z,99001.06
2023-03-10T19:48:02.196Z,99037.69
2023-03-10T19:53:04.199Z,99064.22
2023-03-10T19:58:05.659Z,99113.09
2023-03-10T20:03:07.124Z,99126.94
2023-03-10T20:08:09.131Z,99134.75
2023-03-10T20:13:10.843Z,99169.50
2023-03-10T20:18:12.306Z,99191.03
2023-03-10T20:23:15.194Z,99197.34
2023-03-10T20:28:18.254Z,99202.66
2023-03-10T20:33:23.051Z,99219.63
2023-03-10T20:38:24.509Z,99226.41
2023-03-10T20:43:27.454Z,99273.94
2023-03-10T20:48:29.458Z,99295.16
2023-03-10T20:53:33.328Z,99312.13
2023-03-10T20:58:34.952Z,99318.03
2023-03-10T21:03:38.260Z,99334.09
2023-03-10T21:08:39.709Z,99352.59
2023-03-10T21:13:41.285Z,99359.34
2023-03-10T21:18:42.734Z,99369.38
2023-03-10T21:23:45.195Z,99376.94
2023-03-10T21:28:48.423Z,99366.84
2023-03-10T21:33:50.489Z,99362.72
2023-03-10T21:38:52.773Z,99368.56
2023-03-10T21:43:57.726Z,99375.59
2023-03-10T21:48:59.661Z,99388.28
2023-03-10T21:54:03.002Z,99367.84
2023-03-10T21:59:05.514Z,99372.84
2023-03-10T22:04:06.918Z,99385.50
2023-03-10T22:09:08.287Z,99384.66
2023-03-10T22:14:12.527Z,99392.47
2023-03-10T22:19:13.909Z,99395.06
2023-03-10T22:24:15.298Z,99401.91
2023-03-10T22:29:17.197Z,99411.19
2023-03-10T22:34:20.198Z,99406.25
2023-03-10T22:39:23.479Z,99439.97
2023-03-10T22:44:25.005Z,99452.72
2023-03-10T22:49:26.475Z,99464.69
2023-03-10T22:54:28.519Z,99466.63
2023-03-10T22:59:30.427Z,99465.47
2023-03-10T23:04:35.890Z,99470.72
2023-03-10T23:09:37.392Z,99466.59
2023-03-10T23:14:38.889Z,99473.72
2023-03-10T23:19:41.267Z,99477.50
2023-03-10T23:24:43.150Z,99469.34
2023-03-10T23:29:45.367Z,99456.16
2023-03-10T23:34:47.440Z,99473.19
2023-03-10T23:39:49.694Z,99474.13
2023-03-10T23:44:51.953Z,99483.31
2023-03-10T23:49:55.682Z,99484.94
2023-03-10T23:54:57.223Z,99492.59
2023-03-10T23:59:59.188Z,99517.84
